Time;durP1;ratioP1;P1;durP2;ratioP2;P2;SDS_P1;SDS_P2;PMS_P1;PMS_P2;Temp;Humidity;BMP_temperature;BMP_pressure;BME280_temperature;BME280_humidity;BME280_pressure;Samples;Min_cycle;Max_cycle;Signal;HPM_P1;HPM_P2
2022/03/04 00:00:19;;;;;;;25.80;13.15;;;2.20;99.90;;;;;;5122677;27;20055;-83
2022/03/04 00:02:45;;;;;;;23.17;12.43;;;1.30;99.90;;;;;;5139070;27;20027;-83
2022/03/04 00:05:11;;;;;;;25.58;14.10;;;1.50;99.90;;;;;;5110342;27;20050;-85
2022/03/04 00:07:36;;;;;;;24.70;13.77;;;1.20;99.90;;;;;;5123047;27;20125;-84
2022/03/04 00:10:02;;;;;;;28.17;13.93;;;1.30;99.90;;;;;;5139844;27;20047;-84
2022/03/04 00:12:28;;;;;;;26.83;15.05;;;1.30;99.90;;;;;;5141710;27;20127;-85
2022/03/04 00:14:54;;;;;;;25.92;13.65;;;1.60;99.90;;;;;;5099096;27;20047;-85
2022/03/04 00:17:20;;;;;;;26.55;13.90;;;1.70;99.90;;;;;;5117314;27;20101;-85
2022/03/04 00:19:46;;;;;;;29.35;14.15;;;1.40;99.90;;;;;;5135411;27;20042;-84
2022/03/04 00:22:12;;;;;;;25.05;13.35;;;2.30;99.90;;;;;;5119218;27;20035;-86
2022/03/04 00:24:37;;;;;;;27.52;14.57;;;1.00;99.90;;;;;;5100506;27;20047;-85
2022/03/04 00:27:03;;;;;;;26.42;14.23;;;0.90;99.90;;;;;;5101886;27;20054;-86
2022/03/04 00:29:29;;;;;;;26.65;13.75;;;0.90;99.90;;;;;;5121950;27;20098;-83
2022/03/04 00:31:55;;;;;;;29.92;13.90;;;1.20;99.90;;;;;;5140485;27;20045;-85
2022/03/04 00:34:20;;;;;;;25.75;14.00;;;0.80;99.90;;;;;;5154502;27;20055;-85
2022/03/04 00:36:46;;;;;;;27.63;14.23;;;0.80;99.90;;;;;;5100846;27;20170;-85
2022/03/04 00:39:13;;;;;;;24.55;12.77;;;0.70;99.90;;;;;;5099895;27;20046;-86
2022/03/04 00:41:39;;;;;;;32.95;15.20;;;0.90;99.90;;;;;;5111110;27;20055;-85
2022/03/04 00:44:05;;;;;;;28.15;13.40;;;0.50;99.90;;;;;;5105729;28;20200;-87
2022/03/04 00:46:31;;;;;;;32.92;15.25;;;0.50;99.90;;;;;;5082479;28;20064;-85
2022/03/04 00:48:57;;;;;;;30.55;15.55;;;0.40;99.90;;;;;;5099231;28;20069;-84
2022/03/04 00:51:22;;;;;;;27.90;14.50;;;0.40;99.90;;;;;;5119573;28;20070;-86
2022/03/04 00:53:48;;;;;;;30.90;16.38;;;1.20;99.90;;;;;;5099362;28;20382;-86
2022/03/04 00:56:14;;;;;;;39.10;15.70;;;0.40;99.90;;;;;;5062181;28;20047;-86
2022/03/04 00:58:40;;;;;;;33.33;16.90;;;0.40;99.90;;;;;;5078680;28;20173;-86
2022/03/04 01:01:05;;;;;;;34.30;17.55;;;1.50;99.90;;;;;;5061858;28;20078;-86
2022/03/04 01:03:31;;;;;;;34.90;15.60;;;0.50;99.90;;;;;;5112001;28;20048;-84
2022/03/04 01:05:58;;;;;;;35.20;15.20;;;0.40;99.90;;;;;;5061945;28;20051;-86
2022/03/04 01:08:24;;;;;;;31.23;16.70;;;0.80;99.90;;;;;;5062042;28;20047;-86
2022/03/04 01:10:50;;;;;;;35.40;18.10;;;0.40;99.90;;;;;;5066948;27;20115;-86
2022/03/04 01:13:15;;;;;;;35.45;16.55;;;0.70;99.90;;;;;;5061540;28;20040;-86
2022/03/04 01:15:41;;;;;;;39.30;18.90;;;1.10;99.90;;;;;;5076725;28;20052;-85
2022/03/04 01:18:07;;;;;;;39.50;18.52;;;0.40;99.90;;;;;;5077562;28;20094;-86
2022/03/04 01:20:33;;;;;;;39.08;18.35;;;0.30;99.90;;;;;;5111038;28;20043;-83
2022/03/04 01:22:59;;;;;;;38.50;19.23;;;1.10;99.90;;;;;;5077498;28;20040;-86
2022/03/04 01:25:25;;;;;;;40.22;16.60;;;0.20;99.90;;;;;;5077770;28;20044;-86
2022/03/04 01:27:51;;;;;;;37.03;18.52;;;1.20;99.90;;;;;;5110653;28;20051;-86
2022/03/04 01:30:16;;;;;;;41.05;19.70;;;0.10;99.90;;;;;;5111283;28;20055;-86
2022/03/04 01:32:42;;;;;;;39.28;18.02;;;0.10;99.90;;;;;;5077005;28;20476;-85
2022/03/04 01:35:08;;;;;;;40.40;18.73;;;0.00;99.90;;;;;;5094378;28;20044;-86
2022/03/04 01:37:37;;;;;;;38.13;17.98;;;0.00;99.90;;;;;;5093931;28;20043;-83
2022/03/04 01:40:04;;;;;;;39.33;18.92;;;-0.10;99.90;;;;;;5094238;28;20450;-85
2022/03/04 01:42:30;;;;;;;40.97;19.60;;;-0.20;99.90;;;;;;5077122;28;20064;-86
2022/03/04 01:44:55;;;;;;;38.35;19.02;;;0.00;99.90;;;;;;5076398;28;20048;-86
2022/03/04 01:47:21;;;;;;;43.47;19.75;;;0.10;99.90;;;;;;5111362;28;20093;-85
2022/03/04 01:49:47;;;;;;;42.97;20.05;;;-0.20;99.90;;;;;;5093585;28;20051;-86
2022/03/04 01:52:12;;;;;;;48.75;20.45;;;-0.30;99.90;;;;;;5076420;28;20052;-85
2022/03/04 01:54:38;;;;;;;44.05;20.23;;;0.60;99.90;;;;;;5076566;28;20054;-86
2022/03/04 01:57:04;;;;;;;46.88;20.77;;;-0.30;99.90;;;;;;5093976;28;20118;-87
2022/03/04 01:59:29;;;;;;;44.58;19.85;;;-0.30;99.90;;;;;;5111173;28;20047;-86
2022/03/04 02:01:55;;;;;;;47.10;20.73;;;-0.30;99.90;;;;;;5093548;28;20103;-86
2022/03/04 02:04:21;;;;;;;45.90;21.17;;;-0.30;99.90;;;;;;5076979;28;20387;-85
2022/03/04 02:06:47;;;;;;;47.15;21.95;;;-0.40;99.90;;;;;;5076668;28;20051;-86
2022/03/04 02:09:13;;;;;;;51.47;20.75;;;-0.40;99.90;;;;;;5094183;28;20050;-85
2022/03/04 02:11:41;;;;;;;43.95;16.85;;;0.40;99.90;;;;;;5110485;28;20082;-83
2022/03/04 02:14:07;;;;;;;55.40;21.90;;;-0.40;99.90;;;;;;5093980;28;20055;-87
2022/03/04 02:16:42;;;;;;;47.28;21.63;;;-0.40;99.90;;;;;;5110729;28;20055;-84
2022/03/04 02:19:08;;;;;;;51.67;20.58;;;-0.50;99.90;;;;;;5110532;28;20047;-85
2022/03/04 02:21:34;;;;;;;37.85;18.42;;;-0.50;99.90;;;;;;5110743;28;20514;-85
2022/03/04 02:23:59;;;;;;;43.53;18.17;;;-0.40;99.90;;;;;;5092968;28;20048;-86
2022/03/04 02:26:25;;;;;;;49.08;21.45;;;-0.40;99.90;;;;;;5111840;28;20044;-86
2022/03/04 02:28:51;;;;;;;53.17;22.25;;;-0.50;99.90;;;;;;5092316;28;20052;-86
2022/03/04 02:31:17;;;;;;;58.88;22.88;;;0.00;99.90;;;;;;5093276;28;20472;-85
2022/03/04 02:33:43;;;;;;;46.05;21.45;;;0.70;99.90;;;;;;5093279;28;20042;-87
2022/03/04 02:36:09;;;;;;;51.75;21.80;;;-0.60;99.90;;;;;;5093366;28;20130;-85
2022/03/04 02:38:35;;;;;;;58.75;23.63;;;-0.60;99.90;;;;;;5093163;28;20406;-86
2022/03/04 02:41:00;;;;;;;51.58;23.02;;;-0.10;99.90;;;;;;5109631;28;20051;-87
2022/03/04 02:43:26;;;;;;;54.17;19.80;;;-0.70;99.90;;;;;;5110016;28;20083;-85
2022/03/04 02:45:52;;;;;;;50.10;22.98;;;-0.70;99.90;;;;;;5092586;28;20040;-85
2022/03/04 02:48:18;;;;;;;55.47;23.50;;;-0.70;99.90;;;;;;5111080;28;20051;-85
2022/03/04 02:50:44;;;;;;;56.03;23.48;;;-0.80;99.90;;;;;;5092555;28;20052;-85
2022/03/04 02:53:09;;;;;;;58.33;24.70;;;-0.80;99.90;;;;;;5075763;28;20051;-86
2022/03/04 02:55:35;;;;;;;60.65;24.13;;;-0.80;99.90;;;;;;5110043;28;20093;-86
2022/03/04 02:58:01;;;;;;;57.28;23.38;;;-0.80;99.90;;;;;;5092551;28;20125;-86
2022/03/04 03:00:27;;;;;;;55.63;22.98;;;-0.60;99.90;;;;;;5076003;28;20451;-85
2022/03/04 03:02:52;;;;;;;61.35;25.48;;;-0.90;99.90;;;;;;5109182;28;20043;-87
2022/03/04 03:05:18;;;;;;;59.05;23.90;;;-0.90;99.90;;;;;;5092925;28;20047;-86
2022/03/04 03:07:43;;;;;;;63.13;25.13;;;-0.80;99.90;;;;;;5109592;28;20055;-83
2022/03/04 03:10:09;;;;;;;61.83;25.77;;;-1.00;99.90;;;;;;5092897;28;20044;-85
2022/03/04 03:12:36;;;;;;;72.10;28.13;;;-0.80;99.90;;;;;;5076049;28;20135;-85
2022/03/04 03:15:03;;;;;;;65.68;26.70;;;-0.80;99.90;;;;;;5110416;28;20093;-86
2022/03/04 03:17:29;;;;;;;61.45;26.25;;;-0.70;99.90;;;;;;5076086;28;20475;-87
2022/03/04 03:19:54;;;;;;;68.80;25.50;;;-0.60;99.90;;;;;;5109754;28;20035;-86
2022/03/04 03:22:20;;;;;;;58.45;22.73;;;0.00;99.90;;;;;;5111314;28;20086;-85
2022/03/04 03:24:46;;;;;;;64.65;25.33;;;-0.50;99.90;;;;;;5097034;28;20047;-83
2022/03/04 03:27:12;;;;;;;62.92;25.90;;;1.00;99.90;;;;;;5093618;28;20044;-86
2022/03/04 03:29:37;;;;;;;70.95;25.58;;;-0.40;99.90;;;;;;5128566;28;20134;-87
2022/03/04 03:32:03;;;;;;;62.85;24.33;;;0.50;99.90;;;;;;5104222;28;20048;-87
2022/03/04 03:34:29;;;;;;;64.75;26.15;;;-0.40;99.90;;;;;;5079374;28;20483;-87
2022/03/04 03:36:55;;;;;;;65.35;25.63;;;-0.30;99.90;;;;;;5111370;28;20061;-87
2022/03/04 03:39:20;;;;;;;61.97;25.08;;;-0.50;99.90;;;;;;5095454;28;20100;-87
2022/03/04 03:41:46;;;;;;;65.32;26.73;;;-0.50;99.90;;;;;;5108926;27;20047;-82
2022/03/04 03:44:12;;;;;;;70.28;25.02;;;-0.20;99.90;;;;;;5115855;27;20051;-86
2022/03/04 03:46:37;;;;;;;67.57;27.48;;;0.60;99.90;;;;;;5117609;28;20557;-87
2022/03/04 03:49:03;;;;;;;71.50;26.20;;;-0.50;99.90;;;;;;5131893;28;20569;-87
2022/03/04 03:51:29;;;;;;;74.60;27.05;;;-0.50;99.90;;;;;;5101521;28;20053;-87
2022/03/04 03:53:55;;;;;;;69.68;22.67;;;-0.60;99.90;;;;;;5115061;28;20453;-85
2022/03/04 03:56:20;;;;;;;76.25;27.73;;;-0.50;99.90;;;;;;5130050;28;20059;-85
2022/03/04 03:58:46;;;;;;;68.25;26.30;;;1.00;99.90;;;;;;5082042;28;20043;-88
2022/03/04 04:01:12;;;;;;;80.55;29.88;;;-0.50;99.90;;;;;;5096565;28;20388;-89
2022/03/04 04:03:37;;;;;;;77.10;28.27;;;-0.40;99.90;;;;;;5096925;28;20039;-85
2022/03/04 04:06:03;;;;;;;72.95;28.88;;;-0.50;99.90;;;;;;5113523;28;20048;-88
2022/03/04 04:08:28;;;;;;;73.80;27.13;;;-0.50;99.90;;;;;;5113994;28;20104;-87
2022/03/04 04:10:54;;;;;;;76.45;29.17;;;-0.50;99.90;;;;;;5112820;28;20068;-88
2022/03/04 04:13:20;;;;;;;80.72;27.77;;;-0.50;99.90;;;;;;5114907;28;20048;-89
2022/03/04 04:15:45;;;;;;;76.85;27.65;;;-0.50;99.90;;;;;;5113442;28;20132;-87
2022/03/04 04:18:11;;;;;;;71.50;26.73;;;0.60;99.90;;;;;;5113067;28;20039;-89
2022/03/04 04:20:37;;;;;;;66.85;26.33;;;1.20;99.90;;;;;;5113467;28;20077;-89
2022/03/04 04:23:03;;;;;;;69.28;25.83;;;1.00;99.90;;;;;;5112878;28;20050;-87
2022/03/04 04:25:28;;;;;;;63.45;24.90;;;-0.40;99.90;;;;;;5062791;28;20462;-87
2022/03/04 04:27:54;;;;;;;72.13;27.85;;;-0.50;99.90;;;;;;5112624;28;20043;-87
2022/03/04 04:30:20;;;;;;;61.17;24.00;;;-0.50;99.90;;;;;;5112951;28;20043;-88
2022/03/04 04:32:45;;;;;;;65.70;26.17;;;-0.50;99.90;;;;;;5113318;28;20043;-87
2022/03/04 04:35:11;;;;;;;74.30;27.35;;;0.40;99.90;;;;;;5096121;28;20356;-89
2022/03/04 04:37:37;;;;;;;72.47;27.85;;;-0.60;99.90;;;;;;5113427;28;20127;-90
2022/03/04 04:40:04;;;;;;;75.13;28.95;;;0.50;99.90;;;;;;5095121;28;20507;-90
2022/03/04 04:42:30;;;;;;;81.97;30.52;;;-0.60;99.90;;;;;;5062696;28;20476;-89
2022/03/04 04:44:56;;;;;;;66.50;25.75;;;-0.60;99.90;;;;;;5095850;28;20050;-90
2022/03/04 04:47:22;;;;;;;80.60;29.15;;;0.00;99.90;;;;;;5078769;28;20115;-88
2022/03/04 04:49:48;;;;;;;67.20;23.95;;;-0.60;99.90;;;;;;5112402;28;20051;-90
2022/03/04 04:52:14;;;;;;;68.22;24.33;;;-0.30;99.90;;;;;;5095798;28;20054;-90
2022/03/04 04:54:40;;;;;;;74.15;29.83;;;-0.50;99.90;;;;;;5112480;28;20098;-90
2022/03/04 04:57:06;;;;;;;64.75;28.08;;;-0.20;99.90;;;;;;5078270;28;20079;-87
2022/03/04 04:59:32;;;;;;;72.13;27.55;;;-0.40;99.90;;;;;;5095800;28;20054;-91
2022/03/04 05:01:58;;;;;;;75.50;28.25;;;-0.50;99.90;;;;;;5095190;28;20051;-88
2022/03/04 05:04:24;;;;;;;72.07;28.30;;;-0.50;99.90;;;;;;5112689;28;20047;-91
2022/03/04 05:06:51;;;;;;;67.88;29.02;;;-0.30;99.90;;;;;;5113225;28;20127;-91
2022/03/04 05:09:16;;;;;;;69.43;25.85;;;-0.40;99.90;;;;;;5126840;28;20087;-87
2022/03/04 05:11:42;;;;;;;75.53;28.55;;;0.80;99.90;;;;;;5114153;28;20047;-88
2022/03/04 05:14:08;;;;;;;73.28;26.00;;;-0.50;99.90;;;;;;5091668;28;20435;-89
2022/03/04 05:16:34;;;;;;;73.70;27.75;;;0.50;99.90;;;;;;5127860;28;20044;-88
2022/03/04 05:18:59;;;;;;;46.78;18.95;;;-0.50;99.90;;;;;;5116733;27;20455;-89
2022/03/04 05:21:28;;;;;;;70.03;29.35;;;0.80;99.90;;;;;;5101575;27;20047;-87
2022/03/04 05:24:00;;;;;;;69.45;26.95;;;0.90;99.90;;;;;;5134155;27;20043;-90
2022/03/04 05:26:27;;;;;;;63.75;26.20;;;0.80;99.90;;;;;;5132525;27;20114;-90
2022/03/04 05:28:53;;;;;;;65.57;27.00;;;-0.50;99.90;;;;;;5098144;27;20047;-88
2022/03/04 05:31:21;;;;;;;51.60;20.95;;;-0.50;99.90;;;;;;5114101;27;20047;-90
2022/03/04 05:33:46;;;;;;;72.05;27.85;;;-0.40;99.90;;;;;;5098825;27;20542;-92
2022/03/04 05:36:12;;;;;;;71.18;28.25;;;-0.40;99.90;;;;;;5115080;27;20053;-92
2022/03/04 05:38:38;;;;;;;62.30;25.83;;;-0.40;99.90;;;;;;5117207;27;20043;-92
2022/03/04 05:41:03;;;;;;;68.03;27.73;;;-0.20;99.90;;;;;;5114935;27;20043;-91
2022/03/04 05:43:29;;;;;;;71.88;30.23;;;0.70;99.90;;;;;;5110564;28;20052;-91
2022/03/04 05:45:55;;;;;;;62.03;24.27;;;-0.40;99.90;;;;;;5078550;28;20031;-91
2022/03/04 05:48:20;;;;;;;60.60;25.02;;;0.20;99.90;;;;;;5077526;27;20175;-90
2022/03/04 05:50:46;;;;;;;59.72;24.52;;;-0.30;99.90;;;;;;5114941;27;20103;-85
2022/03/04 05:53:12;;;;;;;64.00;27.98;;;0.10;99.90;;;;;;5114019;27;20525;-91
2022/03/04 05:55:37;;;;;;;57.15;23.55;;;-0.40;99.90;;;;;;5132148;27;20059;-91
2022/03/04 05:58:03;;;;;;;55.78;22.25;;;-0.40;99.90;;;;;;5097762;27;20047;-86
2022/03/04 06:00:29;;;;;;;63.95;27.83;;;-0.40;99.90;;;;;;5132675;27;20046;-92
2022/03/04 06:02:54;;;;;;;65.53;28.33;;;-0.50;99.90;;;;;;5097728;27;20440;-90
2022/03/04 06:05:21;;;;;;;71.25;29.98;;;-0.30;99.90;;;;;;5131991;27;20138;-89
2022/03/04 06:07:47;;;;;;;67.82;27.80;;;-0.50;99.90;;;;;;5133147;27;20051;-90
2022/03/04 06:10:12;;;;;;;74.75;30.13;;;0.20;99.90;;;;;;5114027;27;20054;-91
2022/03/04 06:12:38;;;;;;;65.05;27.15;;;0.50;99.90;;;;;;5097838;27;20035;-92
2022/03/04 06:15:04;;;;;;;65.22;27.08;;;0.40;99.90;;;;;;5114778;27;20453;-84
2022/03/04 06:17:30;;;;;;;60.78;25.40;;;-0.50;99.90;;;;;;5114815;27;20039;-91
2022/03/04 06:19:56;;;;;;;60.80;25.55;;;-0.40;99.90;;;;;;5114780;27;20122;-91
2022/03/04 06:22:22;;;;;;;63.60;27.90;;;0.70;99.90;;;;;;5101364;27;20112;-83
2022/03/04 06:24:47;;;;;;;68.35;27.75;;;0.30;99.90;;;;;;5151746;27;20086;-91
2022/03/04 06:27:13;;;;;;;66.15;27.83;;;-0.50;99.90;;;;;;5123718;27;20077;-90
2022/03/04 06:29:39;;;;;;;60.85;22.77;;;-0.50;99.90;;;;;;5110578;27;20085;-92
2022/03/04 06:32:05;;;;;;;66.25;28.50;;;-0.50;99.90;;;;;;5154832;27;20121;-83
2022/03/04 06:34:31;;;;;;;71.10;28.90;;;-0.50;99.90;;;;;;5154617;27;20094;-90
2022/03/04 06:36:57;;;;;;;66.78;27.88;;;0.70;99.90;;;;;;5134749;27;20047;-91
2022/03/04 06:39:22;;;;;;;65.53;29.33;;;-0.60;99.90;;;;;;5111825;27;20118;-91
2022/03/04 06:41:48;;;;;;;62.53;27.58;;;-0.50;99.90;;;;;;5121020;28;20103;-91
2022/03/04 06:44:14;;;;;;;68.95;28.33;;;-0.40;99.90;;;;;;5118637;27;20043;-90
2022/03/04 06:46:40;;;;;;;58.90;26.73;;;-0.50;99.90;;;;;;5134906;27;20122;-91
2022/03/04 06:49:10;;;;;;;58.08;26.65;;;-0.60;99.90;;;;;;5101803;28;20123;-91
2022/03/04 06:51:36;;;;;;;67.18;28.58;;;-0.50;99.90;;;;;;5122707;28;20031;-90
2022/03/04 06:54:02;;;;;;;65.18;28.10;;;-0.50;99.90;;;;;;5135437;28;20059;-90
2022/03/04 06:56:28;;;;;;;63.78;27.15;;;-0.50;99.90;;;;;;5140656;27;20043;-91
2022/03/04 06:58:54;;;;;;;64.90;28.15;;;-0.40;99.90;;;;;;5121566;28;20051;-87
2022/03/04 07:01:19;;;;;;;60.88;27.92;;;-0.40;99.90;;;;;;5115594;28;20047;-91
2022/03/04 07:03:45;;;;;;;66.30;28.65;;;-0.40;99.90;;;;;;5129627;27;20047;-93
2022/03/04 07:06:11;;;;;;;62.67;28.83;;;0.00;99.90;;;;;;5103700;28;20082;-83
2022/03/04 07:08:37;;;;;;;62.38;29.27;;;-0.40;99.90;;;;;;5095672;28;20104;-90
2022/03/04 07:11:03;;;;;;;52.15;24.05;;;0.10;99.90;;;;;;5095736;28;20054;-92
2022/03/04 07:13:29;;;;;;;58.58;24.38;;;-0.40;99.90;;;;;;5112580;28;20175;-91
2022/03/04 07:15:55;;;;;;;53.25;25.27;;;-0.20;99.90;;;;;;5115707;28;20516;-91
2022/03/04 07:18:23;;;;;;;58.88;25.65;;;0.70;99.90;;;;;;5086180;28;20079;-89
2022/03/04 07:20:51;;;;;;;65.22;29.48;;;-0.30;99.90;;;;;;5104856;28;20047;-90
2022/03/04 07:23:17;;;;;;;65.03;27.70;;;-0.30;99.90;;;;;;5114456;28;20048;-90
2022/03/04 07:25:43;;;;;;;58.17;24.88;;;-0.30;99.90;;;;;;5099026;28;20104;-92
2022/03/04 07:28:09;;;;;;;56.88;24.02;;;-0.20;99.90;;;;;;5120246;28;20135;-89
2022/03/04 07:30:34;;;;;;;55.90;25.02;;;-0.20;99.90;;;;;;5102355;28;20051;-89
2022/03/04 07:33:02;;;;;;;55.83;26.75;;;-0.10;99.90;;;;;;5083993;28;20063;-91
2022/03/04 07:35:27;;;;;;;57.35;26.42;;;0.10;99.90;;;;;;5098634;28;20087;-90
2022/03/04 07:37:53;;;;;;;55.95;25.10;;;-0.20;99.90;;;;;;5099001;28;20079;-91
2022/03/04 07:40:19;;;;;;;54.75;25.23;;;0.30;99.90;;;;;;5097508;28;20497;-91
2022/03/04 07:42:44;;;;;;;50.72;24.85;;;-0.10;99.90;;;;;;5114807;28;20057;-89
2022/03/04 07:45:11;;;;;;;56.83;25.13;;;-0.10;99.90;;;;;;5114675;28;20055;-90
2022/03/04 07:47:37;;;;;;;40.08;19.35;;;0.00;99.90;;;;;;5099583;27;20128;-93
2022/03/04 07:50:06;;;;;;;53.30;23.85;;;0.00;99.90;;;;;;5073246;28;20402;-92
2022/03/04 07:52:32;;;;;;;51.92;23.08;;;0.10;99.90;;;;;;5097138;28;20039;-91
2022/03/04 07:55:00;;;;;;;50.85;24.88;;;0.20;99.90;;;;;;5114349;28;20432;-91
2022/03/04 07:57:26;;;;;;;57.65;24.75;;;0.10;99.90;;;;;;5096887;28;20060;-89
2022/03/04 07:59:51;;;;;;;49.13;23.35;;;0.90;99.90;;;;;;5097476;28;20106;-88
2022/03/04 08:02:17;;;;;;;51.20;25.20;;;0.40;99.90;;;;;;5098533;28;20047;-85
2022/03/04 08:04:43;;;;;;;46.90;24.20;;;0.10;99.90;;;;;;5112327;28;20106;-87
2022/03/04 08:07:08;;;;;;;52.72;24.48;;;0.10;99.90;;;;;;5088798;28;20051;-92
2022/03/04 08:09:34;;;;;;;50.95;24.40;;;0.10;99.90;;;;;;5097030;28;20048;-91
2022/03/04 08:12:00;;;;;;;32.55;15.60;;;0.20;99.90;;;;;;5098210;28;20181;-91
2022/03/04 08:14:25;;;;;;;56.05;25.23;;;0.20;99.90;;;;;;5113803;28;20044;-92
2022/03/04 08:16:51;;;;;;;44.63;23.67;;;0.30;99.90;;;;;;5080316;28;20059;-90
2022/03/04 08:19:17;;;;;;;46.65;24.48;;;0.30;99.90;;;;;;5103424;28;20040;-84
2022/03/04 08:21:45;;;;;;;39.92;21.05;;;0.30;99.90;;;;;;5113468;28;20051;-90
2022/03/04 08:24:11;;;;;;;47.35;24.17;;;0.40;99.90;;;;;;5114074;28;20121;-88
2022/03/04 08:26:38;;;;;;;45.42;22.88;;;0.40;99.90;;;;;;5079278;28;20126;-91
2022/03/04 08:29:06;;;;;;;42.78;20.13;;;0.40;99.90;;;;;;5063019;28;20054;-88
2022/03/04 08:31:32;;;;;;;44.88;22.25;;;0.40;99.90;;;;;;5095557;28;20086;-90
2022/03/04 08:33:58;;;;;;;47.45;23.23;;;0.40;99.90;;;;;;5079076;28;20526;-89
2022/03/04 08:36:24;;;;;;;49.47;24.10;;;0.50;99.90;;;;;;5095398;28;20054;-89
2022/03/04 08:38:50;;;;;;;46.15;23.40;;;0.50;99.90;;;;;;5096031;28;20047;-89
2022/03/04 08:41:15;;;;;;;44.00;23.67;;;0.70;99.90;;;;;;5096778;28;20051;-89
2022/03/04 08:43:41;;;;;;;46.60;23.60;;;0.80;99.90;;;;;;5112509;28;20124;-91
2022/03/04 08:46:08;;;;;;;42.97;23.65;;;1.30;99.90;;;;;;5112896;28;20457;-90
2022/03/04 08:48:34;;;;;;;46.03;25.15;;;0.90;99.90;;;;;;5062305;28;20466;-90
2022/03/04 08:51:00;;;;;;;41.55;22.08;;;0.80;99.90;;;;;;5113385;28;20075;-90
2022/03/04 08:53:27;;;;;;;42.85;20.88;;;0.80;99.90;;;;;;5113422;28;20050;-89
2022/03/04 08:55:55;;;;;;;46.28;24.75;;;0.90;99.90;;;;;;5113794;28;20352;-88
2022/03/04 08:58:20;;;;;;;48.88;23.95;;;0.90;99.90;;;;;;5078364;28;20060;-84
2022/03/04 09:00:46;;;;;;;46.28;23.40;;;2.20;99.90;;;;;;5123759;27;20067;-87
2022/03/04 09:03:12;;;;;;;42.85;22.90;;;1.00;99.90;;;;;;5127745;27;20568;-89
2022/03/04 09:05:38;;;;;;;45.25;23.88;;;1.00;99.90;;;;;;5097769;27;20051;-87
2022/03/04 09:08:04;;;;;;;45.47;23.67;;;1.00;99.90;;;;;;5097760;27;20050;-86
2022/03/04 09:10:30;;;;;;;44.97;23.17;;;1.00;99.90;;;;;;5097272;27;20058;-88
2022/03/04 09:12:56;;;;;;;47.03;24.60;;;1.10;99.90;;;;;;5113844;27;20035;-88
2022/03/04 09:15:22;;;;;;;48.92;24.95;;;1.00;99.90;;;;;;5138088;27;20489;-86
2022/03/04 09:17:48;;;;;;;41.92;22.65;;;0.10;99.90;;;;;;5081729;28;20054;-86
2022/03/04 09:20:14;;;;;;;35.28;17.30;;;1.70;99.90;;;;;;5124084;27;20047;-88
2022/03/04 09:22:41;;;;;;;46.53;23.80;;;1.40;99.90;;;;;;5129669;27;20510;-87
2022/03/04 09:25:07;;;;;;;46.67;23.67;;;2.00;99.90;;;;;;5087671;28;20035;-87
2022/03/04 09:27:33;;;;;;;41.90;22.92;;;2.40;99.90;;;;;;5105060;27;20053;-85
2022/03/04 09:29:59;;;;;;;45.28;23.02;;;3.10;99.90;;;;;;5123408;27;20563;-87
2022/03/04 09:32:25;;;;;;;43.15;24.52;;;2.20;99.90;;;;;;5124997;27;20047;-87
2022/03/04 09:34:50;;;;;;;41.90;22.73;;;2.50;99.90;;;;;;5086662;28;20100;-88
2022/03/04 09:37:16;;;;;;;41.72;23.85;;;3.00;99.90;;;;;;5128987;27;20047;-88
2022/03/04 09:39:42;;;;;;;30.92;17.55;;;3.00;99.90;;;;;;5127948;27;20147;-88
2022/03/04 09:42:08;;;;;;;37.25;19.17;;;4.30;99.90;;;;;;5131690;27;20785;-89
2022/03/04 09:44:34;;;;;;;37.50;22.83;;;3.90;99.90;;;;;;5131674;27;20059;-88
2022/03/04 09:47:01;;;;;;;38.00;23.02;;;5.00;99.90;;;;;;5128198;27;20391;-86
2022/03/04 09:49:35;;;;;;;38.20;22.17;;;4.60;99.90;;;;;;5123673;27;20054;-85
2022/03/04 09:52:01;;;;;;;38.78;23.10;;;4.90;99.90;;;;;;5098225;27;20063;-86
2022/03/04 09:54:28;;;;;;;37.25;22.88;;;5.80;99.90;;;;;;5108094;27;20051;-82
2022/03/04 09:56:54;;;;;;;35.28;21.02;;;4.90;99.90;;;;;;5120537;27;20106;-86
2022/03/04 09:59:20;;;;;;;42.00;24.83;;;4.90;99.90;;;;;;5120423;28;20063;-85
2022/03/04 10:01:47;;;;;;;35.25;21.35;;;4.70;99.90;;;;;;5120866;27;20047;-84
2022/03/04 10:04:12;;;;;;;39.15;24.13;;;4.90;99.90;;;;;;5122065;27;20080;-85
2022/03/04 10:06:43;;;;;;;38.55;23.90;;;4.50;99.90;;;;;;5136671;27;20042;-85
2022/03/04 10:09:09;;;;;;;36.40;22.80;;;5.10;99.90;;;;;;5102412;27;20055;-86
2022/03/04 10:11:36;;;;;;;33.25;21.77;;;5.30;99.90;;;;;;5096985;27;20399;-85
2022/03/04 10:14:09;;;;;;;28.58;18.50;;;5.40;99.90;;;;;;5105538;27;20110;-85
2022/03/04 10:16:41;;;;;;;33.85;22.00;;;5.30;99.90;;;;;;5076888;28;20051;-84
2022/03/04 10:19:09;;;;;;;36.28;22.05;;;5.60;99.90;;;;;;5078564;27;20093;-86
2022/03/04 10:21:44;;;;;;;34.17;21.92;;;5.60;99.90;;;;;;5113614;27;20108;-84
2022/03/04 10:24:10;;;;;;;34.60;22.13;;;5.20;99.90;;;;;;5111708;27;20314;-85
2022/03/04 10:26:36;;;;;;;33.42;21.13;;;5.30;99.90;;;;;;5111488;27;20412;-85
2022/03/04 10:29:18;;;;;;;30.63;20.13;;;5.30;99.90;;;;;;5124999;27;20062;-85
2022/03/04 10:32:09;;;;;;;31.15;17.20;;;5.30;99.90;;;;;;5099905;27;20089;-86
2022/03/04 10:34:51;;;;;;;32.22;20.83;;;5.70;99.90;;;;;;5113370;27;20083;-84
2022/03/04 10:37:40;;;;;;;31.55;21.13;;;6.30;99.90;;;;;;5131112;27;20043;-85
2022/03/04 10:40:15;;;;;;;32.95;20.27;;;6.40;99.90;;;;;;5114113;27;20495;-84
2022/03/04 10:42:54;;;;;;;34.53;21.73;;;6.80;99.90;;;;;;5113829;27;20055;-87
2022/03/04 10:45:24;;;;;;;31.90;19.80;;;5.90;99.90;;;;;;5114233;27;20051;-85
2022/03/04 10:47:51;;;;;;;31.75;20.02;;;6.40;99.90;;;;;;5113429;27;20075;-85
2022/03/04 10:50:41;;;;;;;33.05;21.08;;;6.30;99.90;;;;;;5112937;27;20138;-85
2022/03/04 10:53:10;;;;;;;36.13;21.70;;;6.70;99.90;;;;;;5114173;27;20105;-84
2022/03/04 10:55:41;;;;;;;30.13;19.75;;;6.50;99.90;;;;;;5105976;28;20051;-84
2022/03/04 10:58:35;;;;;;;30.92;18.42;;;6.20;99.90;;;;;;5096431;28;20418;-85
2022/03/04 11:01:05;;;;;;;32.88;20.42;;;6.30;99.90;;;;;;5113112;28;20463;-84
2022/03/04 11:03:32;;;;;;;30.42;20.30;;;6.20;99.90;;;;;;5113635;28;20418;-86
2022/03/04 11:05:59;;;;;;;33.38;20.42;;;6.10;99.90;;;;;;5104449;28;20086;-85
2022/03/04 11:08:25;;;;;;;29.35;19.17;;;5.90;99.90;;;;;;5127822;28;20140;-85
2022/03/04 11:10:52;;;;;;;28.48;18.83;;;5.80;99.90;;;;;;5096846;28;20047;-85
2022/03/04 11:13:17;;;;;;;26.92;18.52;;;6.10;99.90;;;;;;5114127;28;20530;-86
2022/03/04 11:15:44;;;;;;;28.23;18.00;;;6.20;99.90;;;;;;5130912;28;20220;-84
2022/03/04 11:18:14;;;;;;;23.58;17.20;;;6.10;99.90;;;;;;5114209;28;20051;-86
2022/03/04 11:20:42;;;;;;;26.30;17.65;;;5.90;99.90;;;;;;5130234;28;20062;-86
2022/03/04 11:23:08;;;;;;;25.25;16.60;;;5.70;99.90;;;;;;5127509;28;20079;-82
2022/03/04 11:25:44;;;;;;;23.67;16.23;;;5.90;99.90;;;;;;5110646;28;20039;-85
2022/03/04 11:28:14;;;;;;;25.58;15.27;;;5.70;99.90;;;;;;5124473;28;20071;-85
2022/03/04 11:30:44;;;;;;;25.88;15.85;;;5.80;99.90;;;;;;5098268;28;20043;-84
2022/03/04 11:33:22;;;;;;;26.15;17.08;;;5.80;99.90;;;;;;5115928;28;20069;-86
2022/03/04 11:35:52;;;;;;;22.80;15.75;;;5.90;99.90;;;;;;5120242;28;20047;-85
2022/03/04 11:38:46;;;;;;;24.02;16.00;;;5.30;99.90;;;;;;5110530;28;20089;-85
2022/03/04 11:41:18;;;;;;;24.70;16.02;;;5.90;99.90;;;;;;5145283;28;20043;-86
2022/03/04 11:43:54;;;;;;;22.23;14.93;;;6.10;99.90;;;;;;5143797;28;20080;-85
2022/03/04 11:46:24;;;;;;;23.73;16.17;;;6.30;99.90;;;;;;5154431;27;20052;-83
2022/03/04 11:49:22;;;;;;;23.55;12.02;;;6.30;99.90;;;;;;5137848;28;20058;-82
2022/03/04 11:52:10;;;;;;;26.60;16.73;;;6.30;99.90;;;;;;5116891;28;20058;-85
2022/03/04 11:55:05;;;;;;;23.58;15.65;;;6.50;99.90;;;;;;5141609;28;20260;-82
2022/03/04 11:57:42;;;;;;;22.75;14.63;;;6.60;99.90;;;;;;5150261;28;20078;-86
2022/03/04 12:00:11;;;;;;;22.13;14.57;;;6.60;99.90;;;;;;5108295;27;20043;-86
2022/03/04 12:02:48;;;;;;;20.38;13.93;;;6.70;99.90;;;;;;5140479;27;20043;-86
2022/03/04 12:05:21;;;;;;;21.38;14.18;;;6.70;99.90;;;;;;5143085;27;20049;-85
2022/03/04 12:07:52;;;;;;;21.53;13.47;;;6.80;99.90;;;;;;5135205;27;20043;-84
2022/03/04 12:10:20;;;;;;;23.30;14.52;;;6.90;99.90;;;;;;5125008;27;20288;-85
2022/03/04 12:13:18;;;;;;;24.08;15.07;;;6.90;99.90;;;;;;5135433;27;20126;-83
2022/03/04 12:15:51;;;;;;;21.92;13.57;;;6.90;99.90;;;;;;5113394;28;20035;-81
2022/03/04 12:18:25;;;;;;;20.70;13.63;;;7.20;99.90;;;;;;5129471;27;20096;-85
2022/03/04 12:20:56;;;;;;;21.10;13.43;;;8.00;99.90;;;;;;5135906;27;20051;-83
2022/03/04 12:23:42;;;;;;;20.98;13.38;;;7.10;99.90;;;;;;5152361;27;20062;-82
2022/03/04 12:26:10;;;;;;;20.65;13.98;;;7.20;99.90;;;;;;5134635;27;20085;-85
2022/03/04 12:28:41;;;;;;;15.20;10.05;;;7.20;99.90;;;;;;5139245;27;20131;-86
2022/03/04 12:31:13;;;;;;;18.38;12.38;;;7.40;99.90;;;;;;5099789;27;20051;-87
2022/03/04 12:33:39;;;;;;;16.98;11.90;;;7.60;99.90;;;;;;5129072;27;20035;-87